createdAt,value
2023-03-29T00:00:31.978Z,99384.94
2023-03-29T00:02:59.563Z,99382.56
2023-03-29T00:05:26.700Z,99386.38
2023-03-29T00:07:54.465Z,99389.66
2023-03-29T00:10:24.248Z,99386.28
2023-03-29T00:12:52.704Z,99383.91
2023-03-29T00:15:21.210Z,99393.56
2023-03-29T00:17:48.760Z,99386.13
2023-03-29T00:20:16.805Z,99394.09
2023-03-29T00:22:48.585Z,99414.72
2023-03-29T00:25:16.586Z,99408.81
2023-03-29T00:27:43.678Z,99417.97
2023-03-29T00:30:11.586Z,99397.31
2023-03-29T00:32:39.232Z,99416.34
2023-03-29T00:35:07.723Z,99414.34
2023-03-29T00:37:35.180Z,99423.13
2023-03-29T00:40:02.572Z,99429.09
2023-03-29T00:42:33.236Z,99425.56
2023-03-29T00:45:21.484Z,99445.16
2023-03-29T00:47:57.278Z,99447.09
2023-03-29T00:50:29.865Z,99438.28
2023-03-29T00:53:04.958Z,99462.19
2023-03-29T00:55:44.724Z,99442.34
2023-03-29T00:58:15.994Z,99444.16
2023-03-29T01:00:52.468Z,99441.09
2023-03-29T01:03:27.615Z,99449.88
2023-03-29T01:06:05.473Z,99461.13
2023-03-29T01:08:39.908Z,99454.59
2023-03-29T01:11:31.055Z,99438.00
2023-03-29T01:14:05.705Z,99447.34
2023-03-29T01:16:38.461Z,99441.78
2023-03-29T01:19:09.044Z,99441.97
2023-03-29T01:21:49.543Z,99456.59
2023-03-29T01:24:46.148Z,99463.22
2023-03-29T01:27:23.648Z,99475.72
2023-03-29T01:29:57.481Z,99483.56
2023-03-29T01:32:35.636Z,99473.25
2023-03-29T01:35:10.753Z,99485.50
2023-03-29T01:37:44.212Z,99495.81
2023-03-29T01:40:12.371Z,99490.97
2023-03-29T01:42:50.022Z,99489.22
2023-03-29T01:45:31.508Z,99456.84
2023-03-29T01:48:25.419Z,99461.47
2023-03-29T01:50:56.025Z,99463.00
2023-03-29T01:53:30.603Z,99451.66
2023-03-29T01:56:05.230Z,99480.25
2023-03-29T01:58:35.855Z,99466.69
2023-03-29T02:01:06.083Z,99474.09
2023-03-29T02:03:34.860Z,99476.50
2023-03-29T02:06:05.486Z,99469.34
2023-03-29T02:08:33.150Z,99485.91
2023-03-29T02:11:01.633Z,99481.03
2023-03-29T02:13:29.286Z,99471.50
2023-03-29T02:15:56.817Z,99452.47
2023-03-29T02:18:24.832Z,99432.28
2023-03-29T02:20:53.220Z,99442.78
2023-03-29T02:23:28.980Z,99443.72
2023-03-29T02:25:57.248Z,99431.31
2023-03-29T02:28:27.190Z,99433.50
2023-03-29T02:31:06.546Z,99436.84
2023-03-29T02:33:35.614Z,99433.78
2023-03-29T02:36:15.857Z,99433.97
2023-03-29T02:38:45.099Z,99426.72
2023-03-29T02:41:13.172Z,99421.91
2023-03-29T02:43:42.834Z,99448.28
2023-03-29T02:46:12.650Z,99445.38
2023-03-29T02:48:41.059Z,99430.63
2023-03-29T02:51:19.429Z,99443.25
2023-03-29T02:53:53.509Z,99459.56
2023-03-29T02:56:21.227Z,99449.09
2023-03-29T02:58:48.640Z,99453.53
2023-03-29T03:01:17.890Z,99466.44
2023-03-29T03:03:45.525Z,99446.44
2023-03-29T03:06:13.646Z,99469.94
2023-03-29T03:08:40.827Z,99468.81
2023-03-29T03:11:08.638Z,99474.56
2023-03-29T03:13:35.844Z,99460.84
2023-03-29T03:16:03.417Z,99467.78
2023-03-29T03:18:30.737Z,99485.25
2023-03-29T03:21:01.916Z,99463.72
2023-03-29T03:23:29.682Z,99487.44
2023-03-29T03:25:57.422Z,99489.53
2023-03-29T03:28:27.479Z,99496.25
2023-03-29T03:30:55.755Z,99472.59
2023-03-29T03:33:27.192Z,99473.09
2023-03-29T03:36:13.394Z,99473.72
2023-03-29T03:38:44.269Z,99470.19
2023-03-29T03:41:11.825Z,99476.28
2023-03-29T03:43:41.624Z,99471.16
2023-03-29T03:46:09.479Z,99480.13
2023-03-29T03:48:37.373Z,99487.91
2023-03-29T03:51:17.987Z,99493.69
2023-03-29T03:53:45.200Z,99488.97
2023-03-29T03:56:13.560Z,99493.16
2023-03-29T03:59:07.430Z,99490.47
2023-03-29T04:01:43.911Z,99490.69
2023-03-29T04:04:20.555Z,99485.75
2023-03-29T04:07:03.323Z,99496.19
2023-03-29T04:09:37.758Z,99496.19
2023-03-29T04:12:25.878Z,99496.63
2023-03-29T04:14:53.175Z,99494.56
2023-03-29T04:17:24.660Z,99503.97
2023-03-29T04:19:58.269Z,99507.66
2023-03-29T04:22:28.337Z,99510.69
2023-03-29T04:24:55.491Z,99493.09
2023-03-29T04:27:58.507Z,99510.44
2023-03-29T04:30:45.372Z,99495.25
2023-03-29T04:33:47.814Z,99500.63
2023-03-29T04:36:16.203Z,99498.38
2023-03-29T04:38:47.412Z,99497.91
2023-03-29T04:41:16.189Z,99499.22
2023-03-29T04:44:03.700Z,99503.56
2023-03-29T04:46:32.809Z,99500.28
2023-03-29T04:49:06.377Z,99504.38
2023-03-29T04:51:37.589Z,99476.19
2023-03-29T04:54:05.528Z,99499.06
2023-03-29T04:56:45.664Z,99513.56
2023-03-29T04:59:33.377Z,99494.13
2023-03-29T05:02:05.082Z,99503.16
2023-03-29T05:04:33.164Z,99522.72
2023-03-29T05:07:10.344Z,99525.59
2023-03-29T05:09:37.837Z,99524.91
2023-03-29T05:12:06.654Z,99527.06
2023-03-29T05:14:46.105Z,99532.25
2023-03-29T05:17:13.416Z,99521.03
2023-03-29T05:19:40.978Z,99520.78
2023-03-29T05:22:09.288Z,99533.59
2023-03-29T05:24:37.585Z,99520.84
2023-03-29T05:27:14.602Z,99545.38
2023-03-29T05:29:44.916Z,99554.63
2023-03-29T05:32:37.585Z,99551.13
2023-03-29T05:35:06.265Z,99564.63
2023-03-29T05:37:35.231Z,99559.31
2023-03-29T05:40:10.374Z,99566.91
2023-03-29T05:43:02.742Z,99580.22
2023-03-29T05:45:30.273Z,99550.72
2023-03-29T05:47:58.026Z,99557.78
2023-03-29T05:50:25.752Z,99577.91
2023-03-29T05:52:53.327Z,99546.41
2023-03-29T05:55:20.546Z,99546.50
2023-03-29T05:57:47.840Z,99562.63
2023-03-29T06:00:25.838Z,99554.56
2023-03-29T06:03:14.112Z,99569.59
2023-03-29T06:05:49.962Z,99576.28
2023-03-29T06:08:18.454Z,99575.34
2023-03-29T06:11:06.345Z,99586.97
2023-03-29T06:13:53.113Z,99592.81
2023-03-29T06:16:20.725Z,99577.38
2023-03-29T06:18:48.164Z,99576.09
2023-03-29T06:21:15.570Z,99594.28
2023-03-29T06:23:43.187Z,99572.69
2023-03-29T06:26:11.094Z,99588.91
2023-03-29T06:28:39.361Z,99577.34
2023-03-29T06:31:06.896Z,99589.94
2023-03-29T06:33:38.732Z,99594.50
2023-03-29T06:36:29.012Z,99566.16
2023-03-29T06:38:56.356Z,99590.50
2023-03-29T06:41:44.404Z,99560.69
2023-03-29T06:44:24.161Z,99562.41
2023-03-29T06:47:00.683Z,99563.50
2023-03-29T06:49:28.333Z,99572.84
2023-03-29T06:52:06.177Z,99575.25
2023-03-29T06:54:33.820Z,99557.09
2023-03-29T06:57:04.850Z,99573.09
2023-03-29T06:59:35.104Z,99579.66
2023-03-29T07:02:16.849Z,99553.50
2023-03-29T07:04:56.781Z,99579.19
2023-03-29T07:07:44.114Z,99564.31
2023-03-29T07:10:32.950Z,99573.91
2023-03-29T07:13:23.826Z,99561.00
2023-03-29T07:15:53.146Z,99540.41
2023-03-29T07:18:44.454Z,99559.38
2023-03-29T07:21:17.731Z,99537.78
2023-03-29T07:23:47.467Z,99544.34
2023-03-29T07:26:28.454Z,99553.00
2023-03-29T07:28:56.592Z,99552.19
2023-03-29T07:31:23.937Z,99543.72
2023-03-29T07:33:56.864Z,99543.41
2023-03-29T07:36:28.696Z,99554.91
2023-03-29T07:38:57.253Z,99556.06
2023-03-29T07:41:25.522Z,99567.91
2023-03-29T07:44:06.601Z,99574.78
2023-03-29T07:46:33.697Z,99588.03
2023-03-29T07:49:00.952Z,99578.91
2023-03-29T07:51:28.514Z,99613.97
2023-03-29T07:54:05.541Z,99603.22
2023-03-29T07:56:41.694Z,99602.88
2023-03-29T07:59:17.835Z,99594.59
2023-03-29T08:01:50.465Z,99599.44
2023-03-29T08:04:31.997Z,99618.66
2023-03-29T08:07:21.390Z,99614.34
2023-03-29T08:10:09.957Z,99601.69
2023-03-29T08:13:12.538Z,99585.22
2023-03-29T08:15:52.077Z,99595.06
2023-03-29T08:18:27.112Z,99593.81
2023-03-29T08:20:54.211Z,99598.47
2023-03-29T08:23:21.450Z,99608.03
2023-03-29T08:25:52.282Z,99598.69
2023-03-29T08:28:19.700Z,99600.78
2023-03-29T08:30:51.151Z,99626.28
2023-03-29T08:33:18.883Z,99618.03
2023-03-29T08:35:51.743Z,99612.41
2023-03-29T08:38:22.821Z,99625.44
2023-03-29T08:40:52.103Z,99621.94
2023-03-29T08:43:40.919Z,99643.94
2023-03-29T08:46:39.725Z,99643.41
2023-03-29T08:49:23.592Z,99648.59
2023-03-29T08:52:01.467Z,99627.22
2023-03-29T08:54:41.333Z,99648.22
2023-03-29T08:57:25.862Z,99643.19
2023-03-29T09:00:02.028Z,99649.16
2023-03-29T09:02:36.126Z,99632.22
2023-03-29T09:05:10.450Z,99665.47
2023-03-29T09:07:42.326Z,99645.91
2023-03-29T09:10:16.515Z,99642.84
2023-03-29T09:13:04.196Z,99655.84
2023-03-29T09:15:48.701Z,99664.69
2023-03-29T09:19:17.498Z,99669.63
2023-03-29T09:21:54.587Z,99666.38
2023-03-29T09:25:02.139Z,99674.59
2023-03-29T09:27:35.258Z,99673.25
2023-03-29T09:30:34.806Z,99671.91
2023-03-29T09:33:22.198Z,99675.22
2023-03-29T09:36:18.895Z,99681.72
2023-03-29T09:38:51.250Z,99643.31
2023-03-29T09:41:26.818Z,99672.97
2023-03-29T09:43:57.701Z,99677.84
2023-03-29T09:46:45.249Z,99680.69
2023-03-29T09:49:17.750Z,99680.84
2023-03-29T09:51:49.652Z,99686.78
2023-03-29T09:54:21.059Z,99688.13
2023-03-29T09:57:19.598Z,99713.59
2023-03-29T09:59:49.768Z,99718.41
2023-03-29T10:02:20.170Z,99716.47
2023-03-29T10:04:55.807Z,99708.59
2023-03-29T10:07:23.752Z,99705.22
2023-03-29T10:09:56.968Z,99711.72
2023-03-29T10:12:24.991Z,99714.00
2023-03-29T10:14:54.402Z,99700.53
2023-03-29T10:17:28.263Z,99698.63
2023-03-29T10:20:04.492Z,99688.94
2023-03-29T10:22:41.278Z,99711.88
2023-03-29T10:25:17.575Z,99705.31
2023-03-29T10:27:48.218Z,99704.25
2023-03-29T10:30:24.375Z,99696.09
2023-03-29T10:33:01.285Z,99702.50
2023-03-29T10:35:38.340Z,99690.19
2023-03-29T10:38:10.709Z,99711.00
2023-03-29T10:40:47.518Z,99714.47
2023-03-29T10:43:17.477Z,99718.34
2023-03-29T10:45:47.344Z,99709.81
2023-03-29T10:48:16.328Z,99722.47
2023-03-29T10:50:49.738Z,99728.03
2023-03-29T10:53:27.760Z,99698.19
2023-03-29T10:56:39.234Z,99723.34
2023-03-29T10:59:28.680Z,99724.97
2023-03-29T11:02:14.432Z,99734.59
2023-03-29T11:05:00.368Z,99703.97
2023-03-29T11:07:52.336Z,99741.72
2023-03-29T11:10:43.313Z,99722.34
2023-03-29T11:13:22.553Z,99739.13
2023-03-29T11:16:11.053Z,99724.31
2023-03-29T11:18:41.363Z,99726.44
2023-03-29T11:21:23.719Z,99721.88
2023-03-29T11:24:18.503Z,99738.47
2023-03-29T11:27:16.212Z,99731.06
2023-03-29T11:29:58.826Z,99724.50
2023-03-29T11:32:49.181Z,99727.47
2023-03-29T11:35:38.114Z,99734.84
2023-03-29T11:38:32.439Z,99744.22
2023-03-29T11:41:06.109Z,99726.28
2023-03-29T11:43:33.419Z,99727.78
2023-03-29T11:46:20.888Z,99731.03
2023-03-29T11:48:55.918Z,99722.31
2023-03-29T11:51:28.368Z,99729.09
2023-03-29T11:54:13.429Z,99748.31
2023-03-29T11:56:47.507Z,99749.66
2023-03-29T11:59:23.710Z,99729.75
2023-03-29T12:02:09.355Z,99739.94
2023-03-29T12:04:46.741Z,99718.56
2023-03-29T12:07:20.039Z,99743.59
2023-03-29T12:09:55.024Z,99741.59
2023-03-29T12:12:28.740Z,99756.34
2023-03-29T12:15:09.691Z,99757.16
2023-03-29T12:17:44.489Z,99751.75
2023-03-29T12:20:19.666Z,99752.72
2023-03-29T12:22:51.083Z,99762.78
2023-03-29T12:25:47.748Z,99755.56
2023-03-29T12:28:15.266Z,99775.47
2023-03-29T12:31:07.687Z,99777.75
2023-03-29T12:34:02.572Z,99777.28
2023-03-29T12:37:02.167Z,99774.28
2023-03-29T12:39:51.698Z,99777.53
2023-03-29T12:43:04.073Z,99775.28
2023-03-29T12:46:01.921Z,99781.88
2023-03-29T12:48:30.579Z,99759.47
2023-03-29T12:51:04.084Z,99773.06
2023-03-29T12:53:36.124Z,99788.06
2023-03-29T12:56:04.072Z,99784.06
2023-03-29T12:58:43.105Z,99786.44
2023-03-29T13:01:23.417Z,99792.53
2023-03-29T13:03:56.910Z,99782.28
2023-03-29T13:06:31.462Z,99801.59
2023-03-29T13:09:05.888Z,99792.34
2023-03-29T13:11:41.455Z,99776.78
2023-03-29T13:14:19.409Z,99786.72
2023-03-29T13:16:47.013Z,99794.31
2023-03-29T13:19:46.348Z,99775.09
2023-03-29T13:22:45.964Z,99792.88
2023-03-29T13:25:34.600Z,99794.81
2023-03-29T13:28:40.765Z,99801.84
2023-03-29T13:31:32.460Z,99803.56
2023-03-29T13:34:19.001Z,99795.28
2023-03-29T13:36:52.365Z,99797.03
2023-03-29T13:39:31.162Z,99776.28
2023-03-29T13:42:25.664Z,99801.78
2023-03-29T13:44:53.986Z,99786.34
2023-03-29T13:47:33.234Z,99799.03
2023-03-29T13:50:16.803Z,99783.84
2023-03-29T13:52:57.937Z,99793.72
2023-03-29T13:55:30.922Z,99798.44
2023-03-29T13:58:01.751Z,99798.44
2023-03-29T14:00:37.359Z,99788.28
2023-03-29T14:03:14.529Z,99787.13
2023-03-29T14:05:48.161Z,99787.31
2023-03-29T14:08:37.604Z,99801.03
2023-03-29T14:11:07.777Z,99781.09
2023-03-29T14:13:35.393Z,99802.28
2023-03-29T14:16:07.266Z,99780.03
2023-03-29T14:18:42.685Z,99797.50
2023-03-29T14:21:12.801Z,99800.22
2023-03-29T14:23:43.868Z,99809.38
2023-03-29T14:26:23.059Z,99807.94
2023-03-29T14:28:53.216Z,99790.13
2023-03-29T14:31:41.843Z,99799.56
2023-03-29T14:34:15.042Z,99807.72
2023-03-29T14:36:45.774Z,99808.50
2023-03-29T14:39:18.259Z,99807.38
2023-03-29T14:41:53.665Z,99811.91
2023-03-29T14:44:23.606Z,99807.28
2023-03-29T14:46:50.890Z,99827.56
2023-03-29T14:49:21.673Z,99824.06
2023-03-29T14:51:49.728Z,99815.63
2023-03-29T14:54:22.685Z,99819.94
2023-03-29T14:56:51.189Z,99822.41
2023-03-29T14:59:41.077Z,99807.09
2023-03-29T15:02:29.499Z,99818.84
2023-03-29T15:05:24.283Z,99798.31
2023-03-29T15:07:56.330Z,99816.84
2023-03-29T15:10:23.974Z,99811.53
2023-03-29T15:12:51.788Z,99830.78
2023-03-29T15:15:19.083Z,99825.53
2023-03-29T15:17:52.167Z,99829.38
2023-03-29T15:20:23.493Z,99813.88
2023-03-29T15:22:56.801Z,99821.69
2023-03-29T15:25:27.988Z,99823.84
2023-03-29T15:28:00.258Z,99818.91
2023-03-29T15:30:35.280Z,99837.88
2023-03-29T15:33:29.776Z,99849.88
2023-03-29T15:35:57.531Z,99849.97
2023-03-29T15:38:33.154Z,99830.91
2023-03-29T15:41:08.606Z,99848.84
2023-03-29T15:43:36.811Z,99827.78
2023-03-29T15:46:04.321Z,99833.38
2023-03-29T15:48:33.934Z,99845.78
2023-03-29T15:51:05.722Z,99835.47
2023-03-29T15:53:33.944Z,99837.34
2023-03-29T15:56:02.834Z,99834.72
2023-03-29T15:58:32.572Z,99825.38
2023-03-29T16:01:34.977Z,99858.88
2023-03-29T16:04:05.588Z,99851.75
2023-03-29T16:06:34.869Z,99856.00
2023-03-29T16:09:02.247Z,99837.25
2023-03-29T16:11:29.360Z,99849.56
2023-03-29T16:13:57.079Z,99832.69
2023-03-29T16:16:24.825Z,99819.50
2023-03-29T16:18:52.221Z,99827.38
2023-03-29T16:21:22.374Z,99851.56
2023-03-29T16:23:50.637Z,99846.72
2023-03-29T16:26:18.002Z,99817.41
2023-03-29T16:28:45.329Z,99833.16
2023-03-29T16:31:14.253Z,99853.19
2023-03-29T16:33:41.949Z,99859.53
2023-03-29T16:36:10.234Z,99845.22
2023-03-29T16:38:37.753Z,99851.66
2023-03-29T16:41:05.269Z,99833.16
2023-03-29T16:43:32.553Z,99845.91
2023-03-29T16:45:59.949Z,99839.91
2023-03-29T16:48:27.389Z,99832.63
2023-03-29T16:50:54.671Z,99828.16
2023-03-29T16:53:27.115Z,99863.00
2023-03-29T16:55:54.756Z,99858.78
2023-03-29T16:58:23.372Z,99841.09
2023-03-29T17:00:52.089Z,99850.47
2023-03-29T17:03:20.126Z,99844.41
2023-03-29T17:05:52.108Z,99865.59
2023-03-29T17:08:20.511Z,99849.78
2023-03-29T17:10:52.882Z,99849.69
2023-03-29T17:13:21.331Z,99839.59
2023-03-29T17:15:51.769Z,99836.63
2023-03-29T17:18:24.005Z,99853.41
2023-03-29T17:20:53.034Z,99831.03
2023-03-29T17:23:20.237Z,99838.81
2023-03-29T17:25:49.066Z,99815.56
2023-03-29T17:28:16.187Z,99829.22
2023-03-29T17:30:46.474Z,99867.75
2023-03-29T17:33:15.950Z,99835.56
2023-03-29T17:35:44.513Z,99848.28
2023-03-29T17:38:12.320Z,99837.41
2023-03-29T17:40:39.497Z,99843.31
2023-03-29T17:43:06.810Z,99833.44
2023-03-29T17:45:35.469Z,99870.78
2023-03-29T17:48:06.209Z,99821.34
2023-03-29T17:50:34.302Z,99834.66
2023-03-29T17:53:01.474Z,99818.38
2023-03-29T17:55:29.201Z,99825.28
2023-03-29T17:57:56.531Z,99841.50
2023-03-29T18:00:23.638Z,99836.22
2023-03-29T18:02:50.997Z,99813.63
2023-03-29T18:05:18.767Z,99868.50
2023-03-29T18:07:46.304Z,99847.47
2023-03-29T18:10:13.604Z,99847.81
2023-03-29T18:12:40.821Z,99843.38
2023-03-29T18:15:08.588Z,99849.63
2023-03-29T18:17:35.936Z,99843.50
2023-03-29T18:20:09.540Z,99843.22
2023-03-29T18:22:36.706Z,99849.34
2023-03-29T18:25:05.694Z,99859.28
2023-03-29T18:27:33.053Z,99845.88
2023-03-29T18:30:00.507Z,99833.28
2023-03-29T18:32:31.313Z,99851.56
2023-03-29T18:34:58.868Z,99872.22
2023-03-29T18:37:26.294Z,99868.03
2023-03-29T18:39:53.382Z,99867.03
2023-03-29T18:42:22.408Z,99860.53
2023-03-29T18:44:49.626Z,99851.16
2023-03-29T18:47:18.711Z,99881.59
2023-03-29T18:49:47.605Z,99865.03
2023-03-29T18:52:14.653Z,99891.06
2023-03-29T18:54:42.021Z,99872.34
2023-03-29T18:57:09.412Z,99891.41
2023-03-29T18:59:37.017Z,99909.72
2023-03-29T19:02:04.765Z,99879.06
2023-03-29T19:04:32.005Z,99871.00
2023-03-29T19:07:01.434Z,99900.63
2023-03-29T19:09:28.916Z,99905.03
2023-03-29T19:11:58.069Z,99900.34
2023-03-29T19:14:25.540Z,99887.97
2023-03-29T19:16:53.395Z,99895.16
2023-03-29T19:19:23.373Z,99917.22
2023-03-29T19:21:50.480Z,99906.13
2023-03-29T19:24:18.160Z,99892.88
2023-03-29T19:26:48.722Z,99907.25
2023-03-29T19:29:15.934Z,99906.38
2023-03-29T19:31:43.172Z,99898.63
2023-03-29T19:34:11.432Z,99904.94
2023-03-29T19:36:39.004Z,99934.34
2023-03-29T19:39:07.287Z,99919.41
2023-03-29T19:41:34.502Z,99885.66
2023-03-29T19:44:01.908Z,99901.28
2023-03-29T19:46:29.824Z,99909.28
2023-03-29T19:48:58.488Z,99892.41
2023-03-29T19:51:29.979Z,99910.38
2023-03-29T19:53:57.649Z,99922.91
2023-03-29T19:56:26.658Z,99920.47
2023-03-29T19:58:54.310Z,99921.03
2023-03-29T20:01:22.054Z,99915.22
2023-03-29T20:03:49.857Z,99911.94
2023-03-29T20:06:18.203Z,99933.75
2023-03-29T20:08:45.892Z,99915.78
2023-03-29T20:11:15.099Z,99956.78
2023-03-29T20:13:45.315Z,99932.50
2023-03-29T20:16:16.131Z,99926.13
2023-03-29T20:18:46.710Z,99926.69
2023-03-29T20:21:16.702Z,99930.22
2023-03-29T20:23:44.893Z,99926.06
2023-03-29T20:26:12.068Z,99915.00
2023-03-29T20:28:39.419Z,99915.56
2023-03-29T20:31:11.404Z,99909.19
2023-03-29T20:33:39.488Z,99921.09
2023-03-29T20:36:06.906Z,99931.28
2023-03-29T20:38:35.472Z,99923.56
2023-03-29T20:41:04.791Z,99924.97
2023-03-29T20:43:37.661Z,99943.22
2023-03-29T20:46:06.079Z,99920.22
2023-03-29T20:48:33.477Z,99904.50
2023-03-29T20:51:03.357Z,99901.75
2023-03-29T20:53:34.570Z,99905.78
2023-03-29T20:56:03.447Z,99939.25
2023-03-29T20:58:30.764Z,99932.44
2023-03-29T21:00:58.996Z,99918.03
2023-03-29T21:03:26.301Z,99915.56
2023-03-29T21:05:55.241Z,99913.91
2023-03-29T21:08:22.334Z,99930.50
2023-03-29T21:10:49.490Z,99895.44
2023-03-29T21:13:18.209Z,99922.75
2023-03-29T21:15:46.657Z,99935.47
2023-03-29T21:18:14.154Z,99937.16
2023-03-29T21:20:42.104Z,99943.22
2023-03-29T21:23:09.210Z,99955.41
2023-03-29T21:25:37.366Z,99941.84
2023-03-29T21:28:04.526Z,99941.00
2023-03-29T21:30:32.263Z,99943.16
2023-03-29T21:33:00.615Z,99938.19
2023-03-29T21:35:28.320Z,99933.47
2023-03-29T21:37:55.565Z,99923.00
2023-03-29T21:40:23.046Z,99955.91
2023-03-29T21:42:50.497Z,99929.31
2023-03-29T21:45:17.708Z,99953.59
2023-03-29T21:47:45.045Z,99957.81
2023-03-29T21:50:12.244Z,99928.78
2023-03-29T21:52:39.283Z,99945.94
2023-03-29T21:55:06.679Z,99960.84
2023-03-29T21:57:33.760Z,99938.72
2023-03-29T22:00:00.950Z,99931.50
2023-03-29T22:02:30.146Z,99964.16
2023-03-29T22:04:57.335Z,99951.75
2023-03-29T22:07:24.339Z,99954.88
2023-03-29T22:09:51.467Z,99930.00
2023-03-29T22:12:18.900Z,99954.34
2023-03-29T22:14:46.083Z,99951.00
2023-03-29T22:17:13.759Z,99937.78
2023-03-29T22:19:41.878Z,99957.09
2023-03-29T22:22:13.731Z,99965.66
2023-03-29T22:24:42.339Z,99963.75
2023-03-29T22:27:10.780Z,99970.09
2023-03-29T22:29:37.958Z,99952.13
2023-03-29T22:32:06.188Z,99978.41
2023-03-29T22:34:33.574Z,99965.34
2023-03-29T22:37:00.914Z,99960.69
2023-03-29T22:39:28.624Z,99949.34
2023-03-29T22:41:56.147Z,99947.13
2023-03-29T22:44:23.769Z,99959.25
2023-03-29T22:46:51.761Z,99961.53
2023-03-29T22:49:19.815Z,99951.03
2023-03-29T22:51:47.143Z,99931.09
2023-03-29T22:54:14.289Z,99940.78
2023-03-29T22:56:41.440Z,99944.97
2023-03-29T22:59:08.923Z,99932.81
2023-03-29T23:01:36.082Z,99955.19
2023-03-29T23:04:04.358Z,99955.75
2023-03-29T23:06:31.739Z,99941.94
2023-03-29T23:08:58.906Z,99974.78
2023-03-29T23:11:26.583Z,99976.47
2023-03-29T23:13:56.732Z,99944.13
2023-03-29T23:16:25.527Z,99968.47
2023-03-29T23:18:52.604Z,99959.91
2023-03-29T23:21:19.719Z,99957.41
2023-03-29T23:23:46.956Z,99910.44
2023-03-29T23:26:14.166Z,99956.88
2023-03-29T23:28:41.296Z,99946.06
2023-03-29T23:31:11.682Z,99957.13
2023-03-29T23:33:41.405Z,99952.16
2023-03-29T23:36:14.029Z,99942.19
2023-03-29T23:38:42.515Z,99963.50
2023-03-29T23:41:12.883Z,99969.84
2023-03-29T23:43:42.194Z,99952.44
2023-03-29T23:46:17.481Z,99953.56
2023-03-29T23:48:46.222Z,99970.41
2023-03-29T23:51:13.516Z,99968.19
2023-03-29T23:53:41.394Z,99943.34
2023-03-29T23:56:09.257Z,99930.03
2023-03-29T23:58:37.910Z,99958.78
